Clearbrook, Washington
Current Conditions -  °F | °C
As of 5:00 AM on Sunday 21 Dec 2014 (Local Time) from CYXX Reporting Station
Broken Clouds Broken Clouds  
Wind Chill: 41°   Ceiling: 15000
Heat Index: 45°   Visibility: 10mi
Dew Point: 43°   Wind: 6mph
Humidity: 93%   Direction: 210°SSW
Pressure: 29.69"   Gusts: NA
Location:  48.9612°N, 122.12°W
Report Text: CYXX 211300Z 21005KT 10SM BKN150 07/06 A2969 RMK AC5 SLP057
Loading
Personal Weather Stations






























Interactive Weather Map New forecast layout! Learn more

10-Day Weather Forecast

Advertisements
Track Severe Weather on mobile